• Join FlightAware (Why Join?)
  • Login
  • US Flag 
07:45AM EDT


 

Airport Tracker/Info


-or-


 

Live Flight TrackerFlight Track Log ✈ SKW5305 ✈ 24-Apr-2013 ✈ KSEA - KPDX

Flight Track Log - Related Links

Times and Time Zones

All times are in EDT time to prevent confusion due to time zone crossing. See the SKW5305 flight status page for this flight to view local times or setup timezone preferences in your user account.

Time Position Orientation Groundspeed Altitude Reporting Facility
EDT Latitude Longitude Course Direction KTS MPH feet Rate Location/Type
08:30PM 47.4628 -122.3078 292° West 120 138 1,300  Level Seattle Center
08:31PM 47.4736 -122.3481 292° West 164 189 2,600 1,740 Climbing Seattle Center
08:32PM 47.4639 -122.4386 261° West 189 217 4,900 1,800 Climbing Seattle Center
08:33PM 47.4478 -122.5067 251° West 189 217 6,700 1,620 Climbing Seattle Center
08:34PM 47.3958 -122.5394 203° Southwest 211 243 8,200 1,560 Climbing Seattle Center
08:35PM 47.3467 -122.4914 146° Southeast 215 247 9,900 1,560 Climbing Seattle Center
08:36PM 47.2981 -122.4369 143° Southeast 222 255 11,400 1,380 Climbing Seattle Center
08:37PM 47.2353 -122.4247 172° South 236 272 12,800 1,440 Climbing Seattle Center
08:38PM 47.1561 -122.4272 181° South 241 277 14,400 1,080 Climbing Seattle Center
08:39PM 47.0864 -122.4258 179° South 254 292 15,000 240 Climbing Seattle Center
08:40PM 47.0100 -122.4247 179° South 275 316 15,000  Level Seattle Center
08:41PM 46.9306 -122.4225 179° South 281 323 15,000  Level Seattle Center
08:42PM 46.8553 -122.4211 179° South 281 323 15,000  Level Seattle Center
08:43PM 46.7769 -122.4203 180° South 285 328 15,000  Level Seattle Center
08:44PM 46.6983 -122.4178 179° South 285 328 15,000  Level Seattle Center
08:45PM 46.6203 -122.4161 179° South 282 325 15,000  Level Seattle Center
08:46PM 46.5417 -122.4147 179° South 285 328 15,000 -60 Level Seattle Center
08:47PM 46.4478 -122.4108 178° South 284 327 14,900 -480 Descending Seattle Center
08:48PM 46.3481 -122.4133 181° South 282 325 14,000 -1,080 Descending Seattle Center
08:49PM 46.2894 -122.4092 177° South 291 335 12,800 -1,740 Descending Seattle Center
08:50PM 46.1889 -122.4081 180° South 304 350 10,700 -1,800 Descending Seattle Center
08:51PM 46.1294 -122.4094 181° South 293 337 9,200 -1,920 Descending Seattle Center
08:52PM 46.0378 -122.4336 190° South 263 303 6,900 -1,680 Descending Seattle Center
08:53PM 45.9881 -122.4653 204° Southwest 267 307 5,900 -540 Descending Seattle Center
08:54PM 45.9222 -122.4986 199° South 255 293 5,900  Level Seattle Center
08:55PM 45.8586 -122.5322 200° South 248 285 5,900  Level Seattle Center
08:56PM 45.7808 -122.5428 185° South 260 299 5,900 60 Level Seattle Center
08:56PM 45.7661 -122.5272 144° Southeast 237 273 6,000  Climbing Seattle Center
08:57PM 45.7333 -122.4839 137° Southeast 243 280 5,900  Descending Seattle Center
08:57PM 45.7197 -122.4689 142° Southeast 222 255 6,000 -240 Climbing Seattle Center
08:58PM 45.6858 -122.4272 139° Southeast 226 260 5,700 -720 Descending Seattle Center
08:58PM 45.6686 -122.4094 144° Southeast 207 238 5,300 -1,440 Descending Seattle Center
08:59PM 45.6283 -122.3706 146° Southeast 208 239 4,000 -1,020 Descending Seattle Center
09:00PM 45.5892 -122.3758 185° South 199 229 3,600 -660 Descending Seattle Center
09:01PM 45.5714 -122.3786 186° South 159 183 3,300 -900 Descending Seattle Center
09:01PM 45.5439 -122.3919 199° South 175 201 2,700 -900 Descending Seattle Center
09:02PM 45.5353 -122.4153 242° Southwest 174 200 2,400 -900 Descending Seattle Center
09:02PM 45.5392 -122.4522 279° West 162 186 1,800 -840 Descending Seattle Center